sensor_id;sensor_type;location;lat;lon;timestamp;pressure;altitude;pressure_sealevel;temperature;humidity
76460;BME280;65299;46.084;18.762;2023-05-10T00:00:50;100762.69;;;11.46;68.36
76460;BME280;65299;46.084;18.762;2023-05-10T00:03:50;100755.06;;;11.59;68.30
76460;BME280;65299;46.084;18.762;2023-05-10T00:06:51;100758.34;;;11.67;67.95
76460;BME280;65299;46.084;18.762;2023-05-10T00:09:51;100749.81;;;11.70;67.71
76460;BME280;65299;46.084;18.762;2023-05-10T00:12:52;100758.53;;;11.60;68.01
76460;BME280;65299;46.084;18.762;2023-05-10T00:15:52;100746.59;;;11.21;69.33
76460;BME280;65299;46.084;18.762;2023-05-10T00:18:53;100745.75;;;11.15;69.55
76460;BME280;65299;46.084;18.762;2023-05-10T00:21:54;100738.19;;;10.97;70.24
76460;BME280;65299;46.084;18.762;2023-05-10T00:24:54;100742.97;;;11.00;70.38
76460;BME280;65299;46.084;18.762;2023-05-10T00:27:54;100734.94;;;10.90;70.73
76460;BME280;65299;46.084;18.762;2023-05-10T00:30:57;100733.75;;;10.76;71.09
76460;BME280;65299;46.084;18.762;2023-05-10T00:33:58;100731.84;;;11.03;70.42
76460;BME280;65299;46.084;18.762;2023-05-10T00:36:58;100732.41;;;11.05;70.71
76460;BME280;65299;46.084;18.762;2023-05-10T00:39:58;100727.22;;;10.89;70.75
76460;BME280;65299;46.084;18.762;2023-05-10T00:42:59;100722.75;;;10.94;70.58
76460;BME280;65299;46.084;18.762;2023-05-10T00:46:01;100721.94;;;11.30;69.63
76460;BME280;65299;46.084;18.762;2023-05-10T00:49:01;100719.94;;;11.11;69.89
76460;BME280;65299;46.084;18.762;2023-05-10T00:52:02;100718.66;;;11.13;70.10
76460;BME280;65299;46.084;18.762;2023-05-10T00:55:03;100710.22;;;10.90;70.48
76460;BME280;65299;46.084;18.762;2023-05-10T00:58:04;100710.47;;;11.25;69.46
76460;BME280;65299;46.084;18.762;2023-05-10T01:01:05;100702.22;;;11.21;69.35
76460;BME280;65299;46.084;18.762;2023-05-10T01:04:07;100711.25;;;11.20;69.33
76460;BME280;65299;46.084;18.762;2023-05-10T01:07:07;100714.66;;;11.16;69.55
76460;BME280;65299;46.084;18.762;2023-05-10T01:10:08;100708.03;;;11.18;69.43
76460;BME280;65299;46.084;18.762;2023-05-10T01:13:09;100708.03;;;11.13;69.74
76460;BME280;65299;46.084;18.762;2023-05-10T01:16:10;100705.22;;;10.93;70.08
76460;BME280;65299;46.084;18.762;2023-05-10T01:19:22;100708.03;;;11.13;69.48
76460;BME280;65299;46.084;18.762;2023-05-10T01:33:01;100710.75;;;10.87;70.19
76460;BME280;65299;46.084;18.762;2023-05-10T01:36:19;100708.38;;;10.90;70.42
76460;BME280;65299;46.084;18.762;2023-05-10T01:42:55;100705.44;;;10.87;70.40
76460;BME280;65299;46.084;18.762;2023-05-10T01:46:07;100699.06;;;10.88;70.60
76460;BME280;65299;46.084;18.762;2023-05-10T01:49:23;100700.88;;;10.77;70.53
76460;BME280;65299;46.084;18.762;2023-05-10T01:52:33;100695.50;;;10.72;70.72
76460;BME280;65299;46.084;18.762;2023-05-10T01:55:46;100682.25;;;10.45;71.95
76460;BME280;65299;46.084;18.762;2023-05-10T01:58:48;100683.56;;;10.43;72.16
76460;BME280;65299;46.084;18.762;2023-05-10T02:01:51;100683.88;;;10.78;70.89
76460;BME280;65299;46.084;18.762;2023-05-10T02:04:53;100683.56;;;10.43;71.67
76460;BME280;65299;46.084;18.762;2023-05-10T02:07:53;100685.00;;;10.55;71.79
76460;BME280;65299;46.084;18.762;2023-05-10T02:10:55;100677.50;;;10.79;70.88
76460;BME280;65299;46.084;18.762;2023-05-10T02:13:57;100677.97;;;10.39;72.29
76460;BME280;65299;46.084;18.762;2023-05-10T02:16:59;100678.84;;;10.50;71.74
76460;BME280;65299;46.084;18.762;2023-05-10T02:20:01;100678.56;;;10.46;71.90
76460;BME280;65299;46.084;18.762;2023-05-10T02:23:03;100682.16;;;10.35;72.39
76460;BME280;65299;46.084;18.762;2023-05-10T02:26:04;100674.44;;;10.60;71.57
76460;BME280;65299;46.084;18.762;2023-05-10T02:29:06;100674.59;;;10.49;71.87
76460;BME280;65299;46.084;18.762;2023-05-10T02:32:09;100677.75;;;10.46;72.13
76460;BME280;65299;46.084;18.762;2023-05-10T02:35:12;100676.16;;;10.45;72.02
76460;BME280;65299;46.084;18.762;2023-05-10T02:38:14;100675.94;;;10.51;71.51
76460;BME280;65299;46.084;18.762;2023-05-10T02:41:16;100675.13;;;10.51;71.67
76460;BME280;65299;46.084;18.762;2023-05-10T02:44:20;100666.00;;;10.37;72.18
76460;BME280;65299;46.084;18.762;2023-05-10T02:47:22;100670.72;;;10.30;72.04
76460;BME280;65299;46.084;18.762;2023-05-10T02:50:26;100665.03;;;10.48;71.87
76460;BME280;65299;46.084;18.762;2023-05-10T02:53:31;100676.25;;;10.28;72.89
76460;BME280;65299;46.084;18.762;2023-05-10T02:56:36;100663.53;;;10.03;73.34
76460;BME280;65299;46.084;18.762;2023-05-10T02:59:39;100667.56;;;9.84;74.22
76460;BME280;65299;46.084;18.762;2023-05-10T03:02:40;100661.72;;;9.82;74.11
76460;BME280;65299;46.084;18.762;2023-05-10T03:05:40;100662.28;;;9.63;75.32
76460;BME280;65299;46.084;18.762;2023-05-10T03:08:41;100665.81;;;9.47;75.31
76460;BME280;65299;46.084;18.762;2023-05-10T03:11:58;100660.41;;;9.63;75.08
76460;BME280;65299;46.084;18.762;2023-05-10T03:15:24;100657.22;;;9.61;75.15
76460;BME280;65299;46.084;18.762;2023-05-10T03:21:50;100656.56;;;9.71;75.03
76460;BME280;65299;46.084;18.762;2023-05-10T03:24:56;100667.00;;;9.82;74.20
76460;BME280;65299;46.084;18.762;2023-05-10T03:28:01;100661.66;;;10.04;73.59
76460;BME280;65299;46.084;18.762;2023-05-10T03:31:04;100662.25;;;9.84;73.79
76460;BME280;65299;46.084;18.762;2023-05-10T03:34:06;100660.41;;;9.85;74.14
76460;BME280;65299;46.084;18.762;2023-05-10T03:37:07;100657.41;;;9.76;74.44
76460;BME280;65299;46.084;18.762;2023-05-10T03:40:08;100651.59;;;9.79;74.57
76460;BME280;65299;46.084;18.762;2023-05-10T03:43:09;100663.00;;;10.01;74.08
76460;BME280;65299;46.084;18.762;2023-05-10T03:46:09;100671.47;;;9.77;74.83
76460;BME280;65299;46.084;18.762;2023-05-10T03:49:09;100665.03;;;9.94;74.55
76460;BME280;65299;46.084;18.762;2023-05-10T03:52:10;100667.03;;;10.09;74.07
76460;BME280;65299;46.084;18.762;2023-05-10T03:55:11;100658.03;;;10.10;73.78
76460;BME280;65299;46.084;18.762;2023-05-10T03:58:11;100662.91;;;10.18;73.51
76460;BME280;65299;46.084;18.762;2023-05-10T04:01:12;100665.47;;;10.66;71.55
76460;BME280;65299;46.084;18.762;2023-05-10T04:04:12;100666.91;;;10.21;72.71
76460;BME280;65299;46.084;18.762;2023-05-10T04:07:13;100658.91;;;10.42;72.63
76460;BME280;65299;46.084;18.762;2023-05-10T04:10:14;100661.38;;;10.54;72.07
76460;BME280;65299;46.084;18.762;2023-05-10T04:13:16;100661.72;;;10.62;71.70
76460;BME280;65299;46.084;18.762;2023-05-10T04:16:16;100661.78;;;10.72;71.48
76460;BME280;65299;46.084;18.762;2023-05-10T04:19:17;100660.03;;;11.35;69.69
76460;BME280;65299;46.084;18.762;2023-05-10T04:22:17;100670.44;;;11.41;69.26
76460;BME280;65299;46.084;18.762;2023-05-10T04:25:18;100666.06;;;11.15;70.03
76460;BME280;65299;46.084;18.762;2023-05-10T04:28:18;100670.78;;;11.03;70.41
76460;BME280;65299;46.084;18.762;2023-05-10T04:31:18;100670.09;;;11.23;70.15
76460;BME280;65299;46.084;18.762;2023-05-10T04:34:20;100675.44;;;11.28;69.02
76460;BME280;65299;46.084;18.762;2023-05-10T04:37:21;100666.34;;;11.19;70.09
76460;BME280;65299;46.084;18.762;2023-05-10T04:40:23;100674.22;;;11.55;69.04
76460;BME280;65299;46.084;18.762;2023-05-10T04:43:23;100674.34;;;11.71;68.35
76460;BME280;65299;46.084;18.762;2023-05-10T04:46:23;100667.94;;;11.67;68.34
76460;BME280;65299;46.084;18.762;2023-05-10T04:49:24;100673.28;;;11.77;68.43
76460;BME280;65299;46.084;18.762;2023-05-10T04:52:24;100674.09;;;11.87;68.20
76460;BME280;65299;46.084;18.762;2023-05-10T04:55:25;100669.06;;;11.86;68.05
76460;BME280;65299;46.084;18.762;2023-05-10T04:58:26;100671.72;;;11.81;68.36
76460;BME280;65299;46.084;18.762;2023-05-10T05:01:27;100667.78;;;12.08;67.46
76460;BME280;65299;46.084;18.762;2023-05-10T05:04:27;100659.75;;;11.93;67.44
76460;BME280;65299;46.084;18.762;2023-05-10T05:07:27;100664.56;;;11.96;68.02
76460;BME280;65299;46.084;18.762;2023-05-10T05:10:28;100662.44;;;11.98;68.22
76460;BME280;65299;46.084;18.762;2023-05-10T05:13:28;100660.09;;;12.42;66.36
76460;BME280;65299;46.084;18.762;2023-05-10T05:16:30;100667.03;;;12.73;65.83
76460;BME280;65299;46.084;18.762;2023-05-10T05:19:31;100662.78;;;12.57;65.99
76460;BME280;65299;46.084;18.762;2023-05-10T05:22:31;100667.28;;;13.02;65.38
76460;BME280;65299;46.084;18.762;2023-05-10T05:25:32;100664.88;;;12.85;65.09
76460;BME280;65299;46.084;18.762;2023-05-10T05:28:32;100663.50;;;13.28;64.08
76460;BME280;65299;46.084;18.762;2023-05-10T05:31:34;100670.72;;;13.22;64.43
76460;BME280;65299;46.084;18.762;2023-05-10T05:34:35;100668.00;;;13.48;63.60
76460;BME280;65299;46.084;18.762;2023-05-10T05:37:35;100663.97;;;13.50;63.38
76460;BME280;65299;46.084;18.762;2023-05-10T05:40:36;100668.53;;;13.45;63.06
76460;BME280;65299;46.084;18.762;2023-05-10T05:43:37;100668.38;;;13.80;62.19
76460;BME280;65299;46.084;18.762;2023-05-10T05:46:37;100673.31;;;14.06;61.47
76460;BME280;65299;46.084;18.762;2023-05-10T05:49:38;100666.59;;;14.09;61.60
76460;BME280;65299;46.084;18.762;2023-05-10T05:52:38;100677.44;;;14.28;61.70
76460;BME280;65299;46.084;18.762;2023-05-10T05:55:38;100678.00;;;14.20;60.79
76460;BME280;65299;46.084;18.762;2023-05-10T05:58:39;100676.63;;;14.37;60.82
76460;BME280;65299;46.084;18.762;2023-05-10T06:01:39;100675.69;;;14.52;60.70
76460;BME280;65299;46.084;18.762;2023-05-10T06:04:40;100676.72;;;14.56;60.89
76460;BME280;65299;46.084;18.762;2023-05-10T06:07:40;100681.00;;;14.57;59.99
76460;BME280;65299;46.084;18.762;2023-05-10T06:10:42;100684.03;;;14.45;60.08
76460;BME280;65299;46.084;18.762;2023-05-10T06:13:42;100681.59;;;14.49;60.21
76460;BME280;65299;46.084;18.762;2023-05-10T06:16:44;100679.16;;;14.86;59.41
76460;BME280;65299;46.084;18.762;2023-05-10T06:19:45;100674.03;;;14.89;59.37
76460;BME280;65299;46.084;18.762;2023-05-10T06:22:45;100680.22;;;14.85;58.97
76460;BME280;65299;46.084;18.762;2023-05-10T06:25:45;100677.97;;;14.97;58.42
76460;BME280;65299;46.084;18.762;2023-05-10T06:28:46;100674.72;;;15.29;57.99
76460;BME280;65299;46.084;18.762;2023-05-10T06:31:47;100671.91;;;15.15;58.68
76460;BME280;65299;46.084;18.762;2023-05-10T06:34:48;100686.41;;;15.09;57.95
76460;BME280;65299;46.084;18.762;2023-05-10T06:37:49;100686.28;;;15.19;58.28
76460;BME280;65299;46.084;18.762;2023-05-10T06:40:49;100681.88;;;15.33;57.16
76460;BME280;65299;46.084;18.762;2023-05-10T06:43:50;100683.72;;;15.61;56.91
76460;BME280;65299;46.084;18.762;2023-05-10T06:46:51;100690.34;;;15.45;56.76
76460;BME280;65299;46.084;18.762;2023-05-10T06:49:52;100692.09;;;15.55;56.49
76460;BME280;65299;46.084;18.762;2023-05-10T06:52:53;100691.72;;;15.43;56.74
76460;BME280;65299;46.084;18.762;2023-05-10T06:55:53;100698.91;;;15.66;56.38
76460;BME280;65299;46.084;18.762;2023-05-10T06:58:53;100696.28;;;16.03;55.12
76460;BME280;65299;46.084;18.762;2023-05-10T07:01:54;100694.91;;;15.87;56.30
76460;BME280;65299;46.084;18.762;2023-05-10T07:04:54;100696.28;;;16.03;55.24
76460;BME280;65299;46.084;18.762;2023-05-10T07:07:55;100689.59;;;16.24;55.93
76460;BME280;65299;46.084;18.762;2023-05-10T07:11:03;100688.13;;;16.50;54.34
76460;BME280;65299;46.084;18.762;2023-05-10T07:14:04;100688.78;;;16.61;53.58
76460;BME280;65299;46.084;18.762;2023-05-10T07:17:04;100678.56;;;16.44;54.29
76460;BME280;65299;46.084;18.762;2023-05-10T07:20:05;100676.44;;;16.41;53.77
76460;BME280;65299;46.084;18.762;2023-05-10T07:23:06;100680.06;;;16.69;54.09
76460;BME280;65299;46.084;18.762;2023-05-10T07:26:06;100665.44;;;16.94;52.69
76460;BME280;65299;46.084;18.762;2023-05-10T07:29:07;100670.56;;;16.90;53.54
76460;BME280;65299;46.084;18.762;2023-05-10T07:32:07;100668.06;;;17.26;52.29
76460;BME280;65299;46.084;18.762;2023-05-10T07:35:08;100665.56;;;17.16;52.30
76460;BME280;65299;46.084;18.762;2023-05-10T07:38:08;100668.63;;;17.23;52.99
76460;BME280;65299;46.084;18.762;2023-05-10T07:41:11;100669.31;;;16.88;53.86
76460;BME280;65299;46.084;18.762;2023-05-10T07:44:12;100664.66;;;17.07;52.97
76460;BME280;65299;46.084;18.762;2023-05-10T07:47:12;100673.41;;;17.26;52.46
76460;BME280;65299;46.084;18.762;2023-05-10T07:50:13;100670.41;;;17.82;52.18
76460;BME280;65299;46.084;18.762;2023-05-10T07:53:13;100671.75;;;17.71;51.10
76460;BME280;65299;46.084;18.762;2023-05-10T07:56:28;100673.00;;;17.05;52.39
76460;BME280;65299;46.084;18.762;2023-05-10T07:59:29;100688.84;;;16.88;53.37
76460;BME280;65299;46.084;18.762;2023-05-10T08:02:30;100684.97;;;17.54;52.00
76460;BME280;65299;46.084;18.762;2023-05-10T08:05:30;100682.78;;;17.28;51.63
76460;BME280;65299;46.084;18.762;2023-05-10T08:08:31;100679.16;;;17.06;52.82
76460;BME280;65299;46.084;18.762;2023-05-10T08:11:31;100670.13;;;17.02;52.22
76460;BME280;65299;46.084;18.762;2023-05-10T08:14:31;100678.41;;;16.87;53.03
76460;BME280;65299;46.084;18.762;2023-05-10T08:17:32;100674.34;;;16.89;52.72
76460;BME280;65299;46.084;18.762;2023-05-10T08:20:32;100664.97;;;17.32;52.37
76460;BME280;65299;46.084;18.762;2023-05-10T08:23:33;100678.78;;;17.26;53.02
76460;BME280;65299;46.084;18.762;2023-05-10T08:26:33;100668.53;;;17.14;52.29
76460;BME280;65299;46.084;18.762;2023-05-10T08:29:34;100675.00;;;17.27;51.79
76460;BME280;65299;46.084;18.762;2023-05-10T08:32:34;100667.25;;;17.39;51.54
76460;BME280;65299;46.084;18.762;2023-05-10T08:35:35;100671.34;;;17.36;51.98
76460;BME280;65299;46.084;18.762;2023-05-10T08:38:35;100684.16;;;17.39;51.93
76460;BME280;65299;46.084;18.762;2023-05-10T08:41:39;100663.66;;;17.43;51.86
76460;BME280;65299;46.084;18.762;2023-05-10T08:44:39;100667.63;;;17.19;52.70
76460;BME280;65299;46.084;18.762;2023-05-10T08:47:40;100677.47;;;17.23;52.53
76460;BME280;65299;46.084;18.762;2023-05-10T08:50:42;100673.81;;;17.47;52.44
76460;BME280;65299;46.084;18.762;2023-05-10T08:53:44;100675.13;;;17.49;52.24
76460;BME280;65299;46.084;18.762;2023-05-10T08:56:44;100667.66;;;17.32;52.51
76460;BME280;65299;46.084;18.762;2023-05-10T08:59:45;100674.22;;;17.54;52.58
76460;BME280;65299;46.084;18.762;2023-05-10T09:02:46;100661.09;;;17.79;51.22
76460;BME280;65299;46.084;18.762;2023-05-10T09:05:48;100668.66;;;17.77;51.70
76460;BME280;65299;46.084;18.762;2023-05-10T09:08:48;100657.53;;;17.57;51.39
76460;BME280;65299;46.084;18.762;2023-05-10T09:11:49;100667.50;;;18.05;50.12
76460;BME280;65299;46.084;18.762;2023-05-10T09:14:50;100666.16;;;18.16;49.62
76460;BME280;65299;46.084;18.762;2023-05-10T09:17:52;100657.91;;;18.71;48.84
76460;BME280;65299;46.084;18.762;2023-05-10T09:20:54;100650.88;;;18.92;48.67
76460;BME280;65299;46.084;18.762;2023-05-10T09:23:55;100655.03;;;18.98;47.52
76460;BME280;65299;46.084;18.762;2023-05-10T09:26:56;100656.44;;;18.65;49.15
76460;BME280;65299;46.084;18.762;2023-05-10T09:29:57;100648.63;;;18.85;48.51
76460;BME280;65299;46.084;18.762;2023-05-10T09:32:59;100648.78;;;18.80;47.63
76460;BME280;65299;46.084;18.762;2023-05-10T09:36:06;100636.88;;;19.03;48.02
76460;BME280;65299;46.084;18.762;2023-05-10T09:39:08;100640.06;;;19.14;47.35
76460;BME280;65299;46.084;18.762;2023-05-10T09:42:09;100631.38;;;18.34;49.27
76460;BME280;65299;46.084;18.762;2023-05-10T09:45:10;100634.56;;;18.58;48.69
76460;BME280;65299;46.084;18.762;2023-05-10T09:48:10;100640.91;;;18.62;48.77
76460;BME280;65299;46.084;18.762;2023-05-10T09:51:19;100638.16;;;19.45;46.99
76460;BME280;65299;46.084;18.762;2023-05-10T09:54:19;100627.59;;;18.87;48.84
76460;BME280;65299;46.084;18.762;2023-05-10T09:57:21;100624.66;;;18.97;47.17
76460;BME280;65299;46.084;18.762;2023-05-10T10:00:22;100614.84;;;18.62;48.19
76460;BME280;65299;46.084;18.762;2023-05-10T10:03:23;100612.25;;;18.57;48.31
76460;BME280;65299;46.084;18.762;2023-05-10T10:06:24;100618.06;;;19.60;46.64
76460;BME280;65299;46.084;18.762;2023-05-10T10:09:25;100613.00;;;19.50;45.82
76460;BME280;65299;46.084;18.762;2023-05-10T10:12:26;100622.19;;;19.18;46.59
76460;BME280;65299;46.084;18.762;2023-05-10T10:15:26;100617.47;;;18.84;46.70
76460;BME280;65299;46.084;18.762;2023-05-10T10:18:27;100611.44;;;19.18;45.87
76460;BME280;65299;46.084;18.762;2023-05-10T10:21:29;100614.63;;;19.76;46.09
76460;BME280;65299;46.084;18.762;2023-05-10T10:24:31;100616.72;;;19.32;45.34
76460;BME280;65299;46.084;18.762;2023-05-10T10:28:15;100594.81;;;20.15;43.73
76460;BME280;65299;46.084;18.762;2023-05-10T10:30:56;100611.09;;;20.61;43.62
76460;BME280;65299;46.084;18.762;2023-05-10T10:34:04;100610.03;;;20.28;43.32
76460;BME280;65299;46.084;18.762;2023-05-10T10:37:06;100600.97;;;20.50;42.80
76460;BME280;65299;46.084;18.762;2023-05-10T10:40:27;100597.75;;;19.37;45.24
76460;BME280;65299;46.084;18.762;2023-05-10T10:43:28;100603.84;;;19.20;45.94
76460;BME280;65299;46.084;18.762;2023-05-10T10:46:29;100602.72;;;19.77;44.07
76460;BME280;65299;46.084;18.762;2023-05-10T10:49:33;100604.13;;;19.49;44.67
76460;BME280;65299;46.084;18.762;2023-05-10T10:52:40;100597.16;;;20.42;42.53
76460;BME280;65299;46.084;18.762;2023-05-10T10:55:47;100588.41;;;21.09;40.82
76460;BME280;65299;46.084;18.762;2023-05-10T10:58:51;100582.22;;;21.00;41.13
76460;BME280;65299;46.084;18.762;2023-05-10T11:01:53;100583.81;;;21.01;41.61
76460;BME280;65299;46.084;18.762;2023-05-10T11:04:53;100583.81;;;20.54;42.37
76460;BME280;65299;46.084;18.762;2023-05-10T11:07:58;100574.69;;;20.85;42.18
76460;BME280;65299;46.084;18.762;2023-05-10T11:14:04;100575.72;;;21.09;40.23
76460;BME280;65299;46.084;18.762;2023-05-10T11:17:27;100568.97;;;21.44;40.07
76460;BME280;65299;46.084;18.762;2023-05-10T11:20:28;100563.91;;;21.43;39.39
76460;BME280;65299;46.084;18.762;2023-05-10T11:26:39;100575.16;;;20.23;41.43
76460;BME280;65299;46.084;18.762;2023-05-10T11:29:40;100569.31;;;20.30;41.45
76460;BME280;65299;46.084;18.762;2023-05-10T11:32:40;100565.69;;;21.39;40.47
76460;BME280;65299;46.084;18.762;2023-05-10T11:35:41;100561.09;;;21.39;40.82
76460;BME280;65299;46.084;18.762;2023-05-10T11:38:41;100566.53;;;20.47;41.12
76460;BME280;65299;46.084;18.762;2023-05-10T11:41:42;100555.50;;;20.78;39.26
76460;BME280;65299;46.084;18.762;2023-05-10T11:44:45;100554.13;;;21.09;39.64
76460;BME280;65299;46.084;18.762;2023-05-10T11:47:48;100541.63;;;21.25;39.39
76460;BME280;65299;46.084;18.762;2023-05-10T11:50:50;100549.81;;;21.37;39.21
76460;BME280;65299;46.084;18.762;2023-05-10T11:53:53;100540.13;;;21.36;39.01
76460;BME280;65299;46.084;18.762;2023-05-10T11:56:54;100548.50;;;21.43;38.33
76460;BME280;65299;46.084;18.762;2023-05-10T11:59:56;100534.78;;;20.61;39.91
76460;BME280;65299;46.084;18.762;2023-05-10T12:02:57;100543.50;;;21.04;39.71
76460;BME280;65299;46.084;18.762;2023-05-10T12:05:58;100551.75;;;21.58;38.83
76460;BME280;65299;46.084;18.762;2023-05-10T12:08:59;100548.53;;;21.64;37.20
76460;BME280;65299;46.084;18.762;2023-05-10T12:12:05;100545.81;;;21.85;37.96
76460;BME280;65299;46.084;18.762;2023-05-10T12:15:20;100545.69;;;21.81;38.65
76460;BME280;65299;46.084;18.762;2023-05-10T12:18:23;100542.59;;;21.50;37.02
76460;BME280;65299;46.084;18.762;2023-05-10T12:21:26;100537.72;;;21.14;38.75
76460;BME280;65299;46.084;18.762;2023-05-10T12:24:27;100536.59;;;21.86;37.16
76460;BME280;65299;46.084;18.762;2023-05-10T12:27:31;100525.66;;;21.62;37.16
76460;BME280;65299;46.084;18.762;2023-05-10T12:30:34;100517.94;;;21.52;37.64
76460;BME280;65299;46.084;18.762;2023-05-10T12:33:41;100520.03;;;21.46;37.77
76460;BME280;65299;46.084;18.762;2023-05-10T12:36:45;100513.84;;;21.45;38.14
76460;BME280;65299;46.084;18.762;2023-05-10T12:39:45;100517.72;;;21.57;38.81
76460;BME280;65299;46.084;18.762;2023-05-10T12:42:46;100503.44;;;21.15;37.84
76460;BME280;65299;46.084;18.762;2023-05-10T12:45:47;100508.25;;;20.34;38.23
76460;BME280;65299;46.084;18.762;2023-05-10T12:48:48;100516.34;;;20.08;39.27
76460;BME280;65299;46.084;18.762;2023-05-10T12:51:54;100499.28;;;20.50;38.94
76460;BME280;65299;46.084;18.762;2023-05-10T12:54:55;100498.50;;;21.17;37.35
76460;BME280;65299;46.084;18.762;2023-05-10T12:57:55;100494.84;;;21.75;37.48
76460;BME280;65299;46.084;18.762;2023-05-10T13:00:58;100493.97;;;21.00;38.41
76460;BME280;65299;46.084;18.762;2023-05-10T13:03:58;100492.34;;;20.41;39.28
76460;BME280;65299;46.084;18.762;2023-05-10T13:07:00;100496.53;;;20.21;39.49
76460;BME280;65299;46.084;18.762;2023-05-10T13:10:01;100493.66;;;20.73;39.07
76460;BME280;65299;46.084;18.762;2023-05-10T13:13:01;100491.41;;;20.37;38.58
76460;BME280;65299;46.084;18.762;2023-05-10T13:16:02;100478.63;;;20.54;38.55
76460;BME280;65299;46.084;18.762;2023-05-10T13:19:03;100482.03;;;20.43;38.15
76460;BME280;65299;46.084;18.762;2023-05-10T13:22:03;100478.69;;;19.74;38.34
76460;BME280;65299;46.084;18.762;2023-05-10T13:25:04;100469.44;;;20.09;38.48
76460;BME280;65299;46.084;18.762;2023-05-10T13:28:04;100464.19;;;20.59;38.03
76460;BME280;65299;46.084;18.762;2023-05-10T13:31:07;100462.16;;;21.14;37.20
76460;BME280;65299;46.084;18.762;2023-05-10T13:34:07;100463.06;;;21.18;37.51
76460;BME280;65299;46.084;18.762;2023-05-10T13:37:07;100458.00;;;21.17;36.65
76460;BME280;65299;46.084;18.762;2023-05-10T13:40:08;100459.94;;;20.58;37.35
76460;BME280;65299;46.084;18.762;2023-05-10T13:43:09;100461.31;;;20.18;37.92
76460;BME280;65299;46.084;18.762;2023-05-10T13:46:09;100458.59;;;20.93;37.16
76460;BME280;65299;46.084;18.762;2023-05-10T13:49:10;100447.78;;;21.43;36.70
76460;BME280;65299;46.084;18.762;2023-05-10T13:52:10;100451.84;;;22.02;35.68
76460;BME280;65299;46.084;18.762;2023-05-10T13:55:13;100452.91;;;22.22;34.90
76460;BME280;65299;46.084;18.762;2023-05-10T13:58:13;100448.72;;;22.12;35.01
76460;BME280;65299;46.084;18.762;2023-05-10T14:01:13;100441.88;;;22.51;34.53
76460;BME280;65299;46.084;18.762;2023-05-10T14:04:14;100444.03;;;22.82;32.92
76460;BME280;65299;46.084;18.762;2023-05-10T14:07:14;100442.56;;;22.60;33.19
76460;BME280;65299;46.084;18.762;2023-05-10T14:10:15;100440.31;;;22.86;33.81
76460;BME280;65299;46.084;18.762;2023-05-10T14:13:15;100438.81;;;22.28;34.17
76460;BME280;65299;46.084;18.762;2023-05-10T14:16:16;100444.78;;;22.10;34.67
76460;BME280;65299;46.084;18.762;2023-05-10T14:19:16;100437.38;;;22.43;34.38
76460;BME280;65299;46.084;18.762;2023-05-10T14:22:17;100434.66;;;22.55;34.59
76460;BME280;65299;46.084;18.762;2023-05-10T14:25:18;100424.00;;;21.90;35.37
76460;BME280;65299;46.084;18.762;2023-05-10T14:28:18;100427.94;;;21.60;36.15
76460;BME280;65299;46.084;18.762;2023-05-10T14:31:19;100427.28;;;21.09;36.61
76460;BME280;65299;46.084;18.762;2023-05-10T14:34:20;100423.25;;;21.15;36.79
76460;BME280;65299;46.084;18.762;2023-05-10T14:37:21;100420.81;;;21.22;36.49
76460;BME280;65299;46.084;18.762;2023-05-10T14:40:21;100423.97;;;22.47;34.83
76460;BME280;65299;46.084;18.762;2023-05-10T14:43:21;100424.53;;;23.83;31.63
76460;BME280;65299;46.084;18.762;2023-05-10T14:46:22;100423.44;;;24.97;30.10
76460;BME280;65299;46.084;18.762;2023-05-10T14:49:22;100414.03;;;24.60;30.14
76460;BME280;65299;46.084;18.762;2023-05-10T14:52:25;100420.75;;;23.05;32.73
76460;BME280;65299;46.084;18.762;2023-05-10T14:55:26;100423.41;;;24.00;31.71
76460;BME280;65299;46.084;18.762;2023-05-10T14:58:26;100426.72;;;24.72;30.68
76460;BME280;65299;46.084;18.762;2023-05-10T15:01:27;100425.50;;;22.11;34.97
76460;BME280;65299;46.084;18.762;2023-05-10T15:04:27;100432.28;;;23.30;32.96
76460;BME280;65299;46.084;18.762;2023-05-10T15:07:28;100424.84;;;22.14;34.84
76460;BME280;65299;46.084;18.762;2023-05-10T15:10:28;100421.22;;;22.10;34.90
76460;BME280;65299;46.084;18.762;2023-05-10T15:13:29;100417.13;;;22.61;33.44
76460;BME280;65299;46.084;18.762;2023-05-10T15:16:29;100424.94;;;23.02;33.32
76460;BME280;65299;46.084;18.762;2023-05-10T15:19:30;100418.75;;;23.02;32.49
76460;BME280;65299;46.084;18.762;2023-05-10T15:22:30;100416.25;;;24.54;29.78
76460;BME280;65299;46.084;18.762;2023-05-10T15:25:31;100419.63;;;23.73;31.47
76460;BME280;65299;46.084;18.762;2023-05-10T15:28:34;100417.94;;;24.94;30.55
76460;BME280;65299;46.084;18.762;2023-05-10T15:31:35;100420.44;;;26.20;28.42
76460;BME280;65299;46.084;18.762;2023-05-10T15:34:35;100418.44;;;24.49;30.34
76460;BME280;65299;46.084;18.762;2023-05-10T15:37:37;100421.81;;;22.40;33.83
76460;BME280;65299;46.084;18.762;2023-05-10T15:40:37;100416.59;;;21.99;34.20
76460;BME280;65299;46.084;18.762;2023-05-10T15:43:38;100422.38;;;22.94;33.25
76460;BME280;65299;46.084;18.762;2023-05-10T15:46:38;100414.88;;;21.08;36.63
76460;BME280;65299;46.084;18.762;2023-05-10T15:49:39;100416.72;;;21.70;36.50
76460;BME280;65299;46.084;18.762;2023-05-10T15:52:39;100408.81;;;22.09;35.95
76460;BME280;65299;46.084;18.762;2023-05-10T15:55:40;100413.59;;;22.73;35.10
76460;BME280;65299;46.084;18.762;2023-05-10T15:58:40;100412.50;;;24.28;32.05
76460;BME280;65299;46.084;18.762;2023-05-10T16:01:43;100405.44;;;25.66;29.71